Bingham Canyon, Utah
Current Conditions -  °F | °C
As of 4:53 AM on Monday 26 Jan 2015 (Local Time) from KSLC Reporting Station
Clear Clear  
Wind Chill: 23°   Ceiling: Unl
Heat Index: 31°   Visibility: 7mi
Dew Point: 28°   Wind: 8mph
Humidity: 89%   Direction: 130°SE
Pressure: 30.42"   Gusts: NA
Location:  40.57°N, 112.1°W
Report Text: KSLC 261153Z 13007KT 7SM CLR M01/M02 A3042 RMK AO2 SLP304 T10061022 10022 21011 51003
Loading
Personal Weather Stations






























Interactive Weather Map New forecast layout! Learn more

10-Day Weather Forecast

Advertisements
Track Severe Weather on mobile